createdAt,value
2019-01-20T00:01:09.337Z,101073.39
2019-01-20T00:03:38.205Z,101076.15
2019-01-20T00:06:07.153Z,101080.18
2019-01-20T00:08:36.032Z,101081.00
2019-01-20T00:11:05.014Z,101079.40
2019-01-20T00:13:33.865Z,101079.19
2019-01-20T00:16:02.743Z,101081.33
2019-01-20T00:18:31.670Z,101078.14
2019-01-20T00:21:00.641Z,101078.03
2019-01-20T00:23:29.465Z,101078.06
2019-01-20T00:25:58.321Z,101082.33
2019-01-20T00:28:27.201Z,101077.61
2019-01-20T00:30:56.081Z,101079.45
2019-01-20T00:33:24.995Z,101070.48
2019-01-20T00:35:53.848Z,101075.41
2019-01-20T00:38:22.714Z,101067.95
2019-01-20T00:40:51.610Z,101069.51
2019-01-20T00:43:20.503Z,101071.55
2019-01-20T00:45:49.402Z,101063.13
2019-01-20T00:48:18.270Z,101067.50
2019-01-20T00:50:47.157Z,101066.32
2019-01-20T00:53:16.020Z,101068.34
2019-01-20T00:55:44.920Z,101056.66
2019-01-20T00:58:13.789Z,101063.52
2019-01-20T01:00:42.693Z,101066.59
2019-01-20T01:03:11.580Z,101070.17
2019-01-20T01:05:40.464Z,101071.19
2019-01-20T01:08:09.444Z,101072.61
2019-01-20T01:10:38.331Z,101068.48
2019-01-20T01:13:07.327Z,101080.98
2019-01-20T01:15:36.216Z,101079.52
2019-01-20T01:18:05.149Z,101078.78
2019-01-20T01:20:34.021Z,101075.27
2019-01-20T01:23:02.923Z,101073.33
2019-01-20T01:25:31.790Z,101075.13
2019-01-20T01:28:00.707Z,101076.49
2019-01-20T01:30:29.596Z,101076.86
2019-01-20T01:32:58.472Z,101083.70
2019-01-20T01:35:27.375Z,101080.19
2019-01-20T01:37:56.252Z,101080.64
2019-01-20T01:40:25.152Z,101080.83
2019-01-20T01:42:54.020Z,101079.95
2019-01-20T01:45:22.940Z,101079.95
2019-01-20T01:47:51.818Z,101079.17
2019-01-20T01:50:20.693Z,101077.89
2019-01-20T01:52:49.571Z,101078.98
2019-01-20T01:55:18.489Z,101082.30
2019-01-20T01:57:47.400Z,101079.95
2019-01-20T02:00:18.376Z,101086.25
2019-01-20T02:02:47.299Z,101085.88
2019-01-20T02:05:16.212Z,101087.61
2019-01-20T02:07:45.117Z,101083.95
2019-01-20T02:10:16.088Z,101081.44
2019-01-20T02:12:44.992Z,101085.17
2019-01-20T02:15:14.792Z,101084.77
2019-01-20T02:17:43.736Z,101082.72
2019-01-20T02:20:14.827Z,101089.27
2019-01-20T02:22:43.740Z,101093.34
2019-01-20T02:25:12.644Z,101092.38
2019-01-20T02:27:41.554Z,101088.24
2019-01-20T02:30:14.687Z,101090.80
2019-01-20T02:32:43.583Z,101090.77
2019-01-20T02:35:12.487Z,101087.00
2019-01-20T02:37:41.354Z,101086.99
2019-01-20T02:40:10.662Z,101089.02
2019-01-20T02:42:39.555Z,101088.33
2019-01-20T02:45:09.687Z,101084.93
2019-01-20T02:47:38.579Z,101080.58
2019-01-20T02:50:08.929Z,101075.45
2019-01-20T02:52:37.794Z,101083.27
2019-01-20T02:55:06.750Z,101085.38
2019-01-20T02:57:35.663Z,101087.75
2019-01-20T03:00:07.338Z,101084.34
2019-01-20T03:02:36.196Z,101082.62
2019-01-20T03:05:06.568Z,101086.66
2019-01-20T03:07:35.452Z,101087.29
2019-01-20T03:10:05.253Z,101092.70
2019-01-20T03:12:34.170Z,101091.84
2019-01-20T03:15:03.052Z,101086.73
2019-01-20T03:17:31.957Z,101088.73
2019-01-20T03:20:00.878Z,101091.05
2019-01-20T03:22:29.777Z,101084.17
2019-01-20T03:24:58.653Z,101082.97
2019-01-20T03:27:27.541Z,101079.45
2019-01-20T03:29:56.419Z,101084.22
2019-01-20T03:32:25.330Z,101081.16
2019-01-20T03:34:54.244Z,101080.66
2019-01-20T03:37:23.160Z,101076.77
2019-01-20T03:39:52.065Z,101068.98
2019-01-20T03:42:20.993Z,101076.39
2019-01-20T03:44:49.883Z,101080.33
2019-01-20T03:47:18.773Z,101081.78
2019-01-20T03:49:47.677Z,101081.86
2019-01-20T03:52:16.543Z,101077.93
2019-01-20T03:54:45.453Z,101078.63
2019-01-20T03:57:14.352Z,101090.84
2019-01-20T03:59:43.251Z,101089.52
2019-01-20T04:02:12.171Z,101087.08
2019-01-20T04:04:41.052Z,101089.48
2019-01-20T04:07:09.963Z,101090.09
2019-01-20T04:09:38.832Z,101087.56
2019-01-20T04:12:07.740Z,101095.97
2019-01-20T04:14:36.631Z,101092.11
2019-01-20T04:17:05.585Z,101097.04
2019-01-20T04:19:34.486Z,101094.20
2019-01-20T04:22:03.390Z,101099.34
2019-01-20T04:24:32.279Z,101103.70
2019-01-20T04:27:01.174Z,101100.67
2019-01-20T04:29:30.062Z,101103.25
2019-01-20T04:31:58.953Z,101100.87
2019-01-20T04:34:27.833Z,101100.08
2019-01-20T04:36:56.734Z,101103.56
2019-01-20T04:39:25.617Z,101099.55
2019-01-20T04:41:54.522Z,101097.55
2019-01-20T04:44:23.398Z,101107.80
2019-01-20T04:46:52.278Z,101113.17
2019-01-20T04:49:21.172Z,101111.92
2019-01-20T04:51:50.016Z,101110.30
2019-01-20T04:54:18.908Z,101110.75
2019-01-20T04:56:47.772Z,101102.28
2019-01-20T04:59:16.747Z,101110.97
2019-01-20T05:01:45.546Z,101110.63
2019-01-20T05:04:14.452Z,101120.44
2019-01-20T05:06:43.327Z,101115.73
2019-01-20T05:09:12.199Z,101112.78
2019-01-20T05:11:41.103Z,101108.02
2019-01-20T05:14:09.981Z,101119.66
2019-01-20T05:16:38.837Z,101112.44
2019-01-20T05:19:07.709Z,101116.00
2019-01-20T05:21:36.601Z,101125.98
2019-01-20T05:24:05.514Z,101121.52
2019-01-20T05:26:34.379Z,101125.98
2019-01-20T05:29:03.311Z,101123.06
2019-01-20T05:31:32.189Z,101121.09
2019-01-20T05:34:01.069Z,101122.20
2019-01-20T05:36:29.960Z,101120.53
2019-01-20T05:38:58.826Z,101120.56
2019-01-20T05:41:27.725Z,101128.40
2019-01-20T05:43:56.642Z,101124.50
2019-01-20T05:46:25.531Z,101123.73
2019-01-20T05:48:54.425Z,101125.09
2019-01-20T05:51:23.329Z,101125.34
2019-01-20T05:53:52.209Z,101130.00
2019-01-20T05:56:21.118Z,101125.64
2019-01-20T05:58:49.975Z,101129.27
2019-01-20T06:01:18.916Z,101133.77
2019-01-20T06:03:47.786Z,101136.09
2019-01-20T06:06:16.671Z,101137.05
2019-01-20T06:08:45.569Z,101143.20
2019-01-20T06:11:14.442Z,101138.33
2019-01-20T06:13:43.317Z,101147.91
2019-01-20T06:16:12.188Z,101147.66
2019-01-20T06:18:41.094Z,101150.55
2019-01-20T06:21:09.984Z,101150.48
2019-01-20T06:23:38.860Z,101148.78
2019-01-20T06:26:07.778Z,101151.67
2019-01-20T06:28:36.680Z,101146.76
2019-01-20T06:31:05.557Z,101144.67
2019-01-20T06:33:34.419Z,101146.06
2019-01-20T06:36:03.381Z,101141.64
2019-01-20T06:38:32.216Z,101151.45
2019-01-20T06:41:01.130Z,101152.36
2019-01-20T06:43:30.037Z,101151.15
2019-01-20T06:45:59.095Z,101158.67
2019-01-20T06:48:27.983Z,101150.41
2019-01-20T06:50:56.887Z,101161.00
2019-01-20T06:53:25.757Z,101166.70
2019-01-20T06:55:54.657Z,101165.03
2019-01-20T06:58:23.565Z,101173.35
2019-01-20T07:00:52.429Z,101170.26
2019-01-20T07:03:21.336Z,101176.84
2019-01-20T07:05:50.201Z,101177.91
2019-01-20T07:08:19.094Z,101187.20
2019-01-20T07:10:48.001Z,101194.33
2019-01-20T07:13:16.895Z,101196.56
2019-01-20T07:15:45.771Z,101197.01
2019-01-20T07:18:14.680Z,101196.27
2019-01-20T07:20:43.552Z,101202.85
2019-01-20T07:23:12.440Z,101201.43
2019-01-20T07:25:41.336Z,101205.14
2019-01-20T07:28:10.231Z,101210.84
2019-01-20T07:30:39.144Z,101209.33
2019-01-20T07:33:08.133Z,101216.37
2019-01-20T07:35:37.063Z,101219.82
2019-01-20T07:38:06.078Z,101226.63
2019-01-20T07:40:34.974Z,101227.43
2019-01-20T07:43:03.886Z,101232.27
2019-01-20T07:45:32.775Z,101234.21
2019-01-20T07:48:01.695Z,101232.98
2019-01-20T07:50:30.634Z,101235.30
2019-01-20T07:52:59.516Z,101234.95
2019-01-20T07:55:28.439Z,101240.63
2019-01-20T07:57:57.362Z,101237.92
2019-01-20T08:00:26.386Z,101242.63
2019-01-20T08:02:55.347Z,101246.76
2019-01-20T08:05:24.237Z,101250.41
2019-01-20T08:07:53.175Z,101250.95
2019-01-20T08:10:27.479Z,101256.34
2019-01-20T08:12:56.401Z,101255.34
2019-01-20T08:15:25.304Z,101260.70
2019-01-20T08:17:54.217Z,101268.86
2019-01-20T08:20:23.403Z,101271.27
2019-01-20T08:22:52.335Z,101279.35
2019-01-20T08:25:21.567Z,101280.74
2019-01-20T08:27:50.506Z,101278.48
2019-01-20T08:30:21.341Z,101278.42
2019-01-20T08:32:50.242Z,101270.38
2019-01-20T08:35:19.179Z,101268.66
2019-01-20T08:37:48.127Z,101264.80
2019-01-20T08:40:19.527Z,101273.14
2019-01-20T08:42:48.446Z,101280.72
2019-01-20T08:45:24.788Z,101282.02
2019-01-20T08:48:01.148Z,101281.30
2019-01-20T08:50:30.089Z,101286.16
2019-01-20T08:52:59.003Z,101285.47
2019-01-20T08:55:27.895Z,101279.63
2019-01-20T08:57:56.786Z,101281.67
2019-01-20T09:00:25.684Z,101290.56
2019-01-20T09:02:54.596Z,101290.08
2019-01-20T09:05:23.473Z,101294.03
2019-01-20T09:07:52.394Z,101290.61
2019-01-20T09:10:23.915Z,101296.16
2019-01-20T09:12:52.834Z,101297.22
2019-01-20T09:15:21.795Z,101291.96
2019-01-20T09:17:50.692Z,101295.19
2019-01-20T09:20:19.605Z,101295.64
2019-01-20T09:22:48.497Z,101294.79
2019-01-20T09:25:17.369Z,101304.45
2019-01-20T09:27:46.334Z,101306.35
2019-01-20T09:30:17.724Z,101308.42
2019-01-20T09:32:46.591Z,101320.16
2019-01-20T09:35:15.495Z,101327.11
2019-01-20T09:37:44.385Z,101321.98
2019-01-20T09:40:14.085Z,101315.48
2019-01-20T09:42:42.986Z,101321.55
2019-01-20T09:45:17.122Z,101321.95
2019-01-20T09:47:46.011Z,101313.08
2019-01-20T09:50:14.898Z,101313.84
2019-01-20T09:52:43.790Z,101311.23
2019-01-20T09:55:12.693Z,101311.05
2019-01-20T09:57:41.576Z,101316.35
2019-01-20T10:00:13.590Z,101317.12
2019-01-20T10:02:42.483Z,101323.50
2019-01-20T10:05:11.365Z,101324.69
2019-01-20T10:07:40.277Z,101328.34
2019-01-20T10:10:11.616Z,101324.83
2019-01-20T10:12:40.489Z,101331.09
2019-01-20T10:15:10.426Z,101335.36
2019-01-20T10:17:39.319Z,101337.61
2019-01-20T10:20:19.696Z,101331.87
2019-01-20T10:22:48.576Z,101332.58
2019-01-20T10:25:17.465Z,101338.64
2019-01-20T10:27:46.345Z,101339.33
2019-01-20T10:30:18.578Z,101340.05
2019-01-20T10:32:48.119Z,101339.95
2019-01-20T10:35:16.373Z,101341.48
2019-01-20T10:37:45.285Z,101341.36
2019-01-20T10:40:14.188Z,101348.81
2019-01-20T10:42:43.058Z,101347.80
2019-01-20T10:45:11.945Z,101349.66
2019-01-20T10:47:40.789Z,101346.30
2019-01-20T10:50:10.460Z,101344.03
2019-01-20T10:52:39.361Z,101345.46
2019-01-20T10:55:08.517Z,101345.37
2019-01-20T10:57:37.327Z,101344.33
2019-01-20T11:00:11.387Z,101338.09
2019-01-20T11:02:40.252Z,101331.42
2019-01-20T11:05:09.368Z,101337.97
2019-01-20T11:07:38.284Z,101337.98
2019-01-20T11:10:07.954Z,101342.59
2019-01-20T11:12:36.873Z,101346.34
2019-01-20T11:15:06.683Z,101343.80
2019-01-20T11:17:35.535Z,101353.23
2019-01-20T11:20:05.115Z,101351.34
2019-01-20T11:22:33.985Z,101356.28
2019-01-20T11:25:02.898Z,101357.53
2019-01-20T11:27:31.752Z,101361.83
2019-01-20T11:30:00.621Z,101366.52
2019-01-20T11:32:29.664Z,101365.52
2019-01-20T11:34:58.526Z,101359.22
2019-01-20T11:37:27.412Z,101362.97
2019-01-20T11:39:56.292Z,101363.48
2019-01-20T11:42:25.213Z,101359.09
2019-01-20T11:44:54.091Z,101362.81
2019-01-20T11:47:22.958Z,101361.05
2019-01-20T11:49:51.912Z,101371.19
2019-01-20T11:52:20.780Z,101367.62
2019-01-20T11:54:49.669Z,101372.27
2019-01-20T11:57:18.572Z,101381.03
2019-01-20T11:59:47.460Z,101376.53
2019-01-20T12:02:22.362Z,101372.13
2019-01-20T12:04:45.235Z,101382.00
2019-01-20T12:07:14.106Z,101379.95
2019-01-20T12:09:42.991Z,101379.08
2019-01-20T12:12:11.889Z,101377.16
2019-01-20T12:14:40.763Z,101384.14
2019-01-20T12:17:09.624Z,101375.80
2019-01-20T12:19:38.517Z,101380.14
2019-01-20T12:22:07.575Z,101376.83
2019-01-20T12:24:36.461Z,101377.55
2019-01-20T12:27:05.546Z,101377.92
2019-01-20T12:29:34.380Z,101385.67
2019-01-20T12:32:03.255Z,101378.28
2019-01-20T12:34:32.134Z,101375.97
2019-01-20T12:37:00.991Z,101374.29
2019-01-20T12:39:29.887Z,101371.64
2019-01-20T12:41:58.752Z,101375.66
2019-01-20T12:44:31.535Z,101379.08
2019-01-20T12:46:56.515Z,101385.69
2019-01-20T12:49:25.386Z,101383.38
2019-01-20T12:51:54.270Z,101376.77
2019-01-20T12:54:23.134Z,101375.36
2019-01-20T12:56:52.011Z,101374.52
2019-01-20T12:59:20.876Z,101381.89
2019-01-20T13:01:49.764Z,101380.66
2019-01-20T13:04:18.662Z,101386.41
2019-01-20T13:06:47.541Z,101391.30
2019-01-20T13:09:16.416Z,101391.62
2019-01-20T13:11:45.270Z,101387.09
2019-01-20T13:14:14.173Z,101387.38
2019-01-20T13:16:43.043Z,101383.86
2019-01-20T13:19:11.930Z,101381.26
2019-01-20T13:21:40.786Z,101383.75
2019-01-20T13:24:09.674Z,101387.70
2019-01-20T13:26:38.608Z,101387.02
2019-01-20T13:29:07.516Z,101385.77
2019-01-20T13:31:36.416Z,101386.84
2019-01-20T13:34:05.390Z,101382.22
2019-01-20T13:36:34.277Z,101387.22
2019-01-20T13:39:03.139Z,101390.30
2019-01-20T13:41:33.375Z,101400.57
2019-01-20T13:44:02.236Z,101396.54
2019-01-20T13:46:31.096Z,101394.62
2019-01-20T13:48:59.949Z,101394.23
2019-01-20T13:51:28.856Z,101392.80
2019-01-20T13:53:57.727Z,101387.11
2019-01-20T13:56:26.622Z,101396.72
2019-01-20T13:58:55.502Z,101397.98
2019-01-20T14:01:24.358Z,101399.79
2019-01-20T14:03:53.242Z,101397.11
2019-01-20T14:06:22.117Z,101397.98
2019-01-20T14:08:50.978Z,101408.50
2019-01-20T14:11:19.874Z,101403.77
2019-01-20T14:13:48.813Z,101415.09
2019-01-20T14:16:17.693Z,101412.87
2019-01-20T14:18:46.592Z,101414.91
2019-01-20T14:21:15.477Z,101418.59
2019-01-20T14:23:44.363Z,101417.38
2019-01-20T14:26:13.240Z,101421.80
2019-01-20T14:28:42.125Z,101420.94
2019-01-20T14:31:10.981Z,101424.75
2019-01-20T14:33:39.865Z,101428.86
2019-01-20T14:36:08.829Z,101420.47
2019-01-20T14:38:37.721Z,101426.08
2019-01-20T14:41:06.686Z,101427.02
2019-01-20T14:43:35.569Z,101424.25
2019-01-20T14:46:04.547Z,101429.20
2019-01-20T14:48:33.395Z,101431.77
2019-01-20T14:51:02.293Z,101428.94
2019-01-20T14:53:31.156Z,101431.43
2019-01-20T14:56:00.061Z,101425.92
2019-01-20T14:58:28.941Z,101423.72
2019-01-20T15:00:57.886Z,101425.22
2019-01-20T15:03:26.716Z,101428.38
2019-01-20T15:05:55.594Z,101438.16
2019-01-20T15:08:24.482Z,101439.06
2019-01-20T15:10:53.360Z,101447.85
2019-01-20T15:13:22.245Z,101453.59
2019-01-20T15:15:51.162Z,101452.74
2019-01-20T15:18:19.996Z,101465.27
2019-01-20T15:20:48.867Z,101462.70
2019-01-20T15:23:17.762Z,101464.05
2019-01-20T15:25:46.642Z,101462.01
2019-01-20T15:28:15.516Z,101455.53
2019-01-20T15:30:44.396Z,101462.45
2019-01-20T15:33:13.263Z,101467.81
2019-01-20T15:35:42.146Z,101467.26
2019-01-20T15:38:11.041Z,101461.89
2019-01-20T15:40:39.953Z,101461.69
2019-01-20T15:43:08.918Z,101460.66
2019-01-20T15:45:37.812Z,101465.13
2019-01-20T15:48:06.861Z,101452.80
2019-01-20T15:50:35.675Z,101457.45
2019-01-20T15:53:04.637Z,101468.92
2019-01-20T15:55:33.516Z,101467.05
2019-01-20T15:58:02.407Z,101467.55
2019-01-20T16:00:32.024Z,101474.66
2019-01-20T16:03:03.995Z,101475.39
2019-01-20T16:05:32.834Z,101474.48
2019-01-20T16:08:01.720Z,101487.66
2019-01-20T16:10:30.604Z,101491.38
2019-01-20T16:12:59.485Z,101497.43
2019-01-20T16:15:33.715Z,101495.30
2019-01-20T16:18:02.595Z,101494.48
2019-01-20T16:20:32.067Z,101495.80
2019-01-20T16:23:02.127Z,101495.48
2019-01-20T16:25:32.887Z,101500.76
2019-01-20T16:28:01.762Z,101504.97
2019-01-20T16:30:32.890Z,101510.86
2019-01-20T16:33:01.772Z,101516.20
2019-01-20T16:35:30.665Z,101516.94
2019-01-20T16:37:59.962Z,101503.22
2019-01-20T16:40:28.847Z,101509.88
2019-01-20T16:42:57.706Z,101520.50
2019-01-20T16:45:33.019Z,101522.53
2019-01-20T16:47:58.752Z,101530.28
2019-01-20T16:50:27.667Z,101533.83
2019-01-20T16:52:56.570Z,101535.77
2019-01-20T16:55:25.451Z,101532.75
2019-01-20T16:57:54.331Z,101535.05
2019-01-20T17:00:25.341Z,101536.39
2019-01-20T17:02:54.339Z,101534.70
2019-01-20T17:05:26.691Z,101528.76
2019-01-20T17:07:52.184Z,101544.63
2019-01-20T17:10:23.420Z,101539.43
2019-01-20T17:12:52.314Z,101543.84
2019-01-20T17:15:23.681Z,101548.22
2019-01-20T17:17:52.530Z,101547.33
2019-01-20T17:20:21.402Z,101548.94
2019-01-20T17:22:50.291Z,101550.91
2019-01-20T17:25:19.211Z,101553.63
2019-01-20T17:27:48.068Z,101560.59
2019-01-20T17:30:19.382Z,101563.16
2019-01-20T17:32:48.255Z,101554.91
2019-01-20T17:35:17.167Z,101563.12
2019-01-20T17:37:46.039Z,101561.89
2019-01-20T17:40:17.311Z,101570.06
2019-01-20T17:42:46.204Z,101565.34
2019-01-20T17:45:18.037Z,101565.23
2019-01-20T17:47:46.926Z,101569.05
2019-01-20T17:50:21.368Z,101576.42
2019-01-20T17:52:50.258Z,101577.91
2019-01-20T17:55:19.155Z,101586.11
2019-01-20T17:57:48.044Z,101584.27
2019-01-20T18:00:19.468Z,101588.94
2019-01-20T18:02:48.387Z,101592.89
2019-01-20T18:05:19.434Z,101596.27
2019-01-20T18:07:48.390Z,101600.59
2019-01-20T18:10:17.288Z,101588.63
2019-01-20T18:12:46.218Z,101598.00
2019-01-20T18:15:16.017Z,101602.16
2019-01-20T18:17:44.886Z,101612.46
2019-01-20T18:20:19.016Z,101618.09
2019-01-20T18:22:47.909Z,101613.02
2019-01-20T18:25:17.125Z,101622.78
2019-01-20T18:27:46.077Z,101618.81
2019-01-20T18:30:17.567Z,101620.57
2019-01-20T18:32:46.501Z,101624.82
2019-01-20T18:35:15.429Z,101630.08
2019-01-20T18:37:44.290Z,101632.38
2019-01-20T18:40:15.166Z,101633.70
2019-01-20T18:42:44.157Z,101638.38
2019-01-20T18:45:15.071Z,101641.50
2019-01-20T18:47:43.979Z,101640.06
2019-01-20T18:50:15.571Z,101643.49
2019-01-20T18:52:44.488Z,101638.28
2019-01-20T18:55:13.804Z,101652.31
2019-01-20T18:57:42.703Z,101654.37
2019-01-20T19:00:15.345Z,101664.32
2019-01-20T19:02:44.240Z,101678.28
2019-01-20T19:05:14.266Z,101672.75
2019-01-20T19:07:43.156Z,101676.59
2019-01-20T19:10:13.126Z,101682.92
2019-01-20T19:12:42.019Z,101680.51
2019-01-20T19:15:12.161Z,101681.26
2019-01-20T19:17:41.053Z,101677.64
2019-01-20T19:20:12.859Z,101682.17
2019-01-20T19:22:41.753Z,101680.47
2019-01-20T19:25:10.680Z,101677.09
2019-01-20T19:27:39.619Z,101682.55
2019-01-20T19:30:12.346Z,101684.33
2019-01-20T19:32:41.233Z,101698.55
2019-01-20T19:35:10.170Z,101702.45
2019-01-20T19:37:39.041Z,101702.26
2019-01-20T19:40:09.148Z,101712.52
2019-01-20T19:42:38.054Z,101710.40
2019-01-20T19:45:08.848Z,101707.41
2019-01-20T19:47:37.752Z,101706.19
2019-01-20T19:50:07.906Z,101702.13
2019-01-20T19:52:36.837Z,101704.91
2019-01-20T19:55:08.668Z,101708.78
2019-01-20T19:57:37.601Z,101711.59
2019-01-20T20:00:08.766Z,101715.17
2019-01-20T20:02:37.685Z,101716.46
2019-01-20T20:05:10.043Z,101712.78
2019-01-20T20:07:38.977Z,101721.67
2019-01-20T20:10:09.374Z,101727.91
2019-01-20T20:12:38.293Z,101725.10
2019-01-20T20:15:10.225Z,101718.95
2019-01-20T20:17:39.144Z,101723.09
2019-01-20T20:20:09.192Z,101727.91
2019-01-20T20:22:38.086Z,101718.08
2019-01-20T20:25:07.970Z,101728.67
2019-01-20T20:27:36.884Z,101723.31
2019-01-20T20:30:09.869Z,101729.39
2019-01-20T20:32:38.759Z,101724.83
2019-01-20T20:35:08.098Z,101723.45
2019-01-20T20:37:36.964Z,101732.48
2019-01-20T20:40:07.062Z,101733.11
2019-01-20T20:42:35.975Z,101735.31
2019-01-20T20:45:05.993Z,101742.94
2019-01-20T20:47:34.872Z,101746.92
2019-01-20T20:50:04.191Z,101753.84
2019-01-20T20:52:33.094Z,101756.37
2019-01-20T20:55:02.028Z,101758.50
2019-01-20T20:57:32.029Z,101770.22
2019-01-20T20:59:59.862Z,101765.81
2019-01-20T21:02:28.769Z,101765.14
2019-01-20T21:04:57.673Z,101769.62
2019-01-20T21:07:26.537Z,101768.36
2019-01-20T21:09:56.525Z,101769.20
2019-01-20T21:12:24.314Z,101769.30
2019-01-20T21:14:53.188Z,101771.70
2019-01-20T21:17:22.086Z,101777.08
2019-01-20T21:19:50.989Z,101778.87
2019-01-20T21:22:19.915Z,101783.47
2019-01-20T21:24:48.791Z,101780.66
2019-01-20T21:27:17.666Z,101776.80
2019-01-20T21:29:46.559Z,101778.75
2019-01-20T21:32:15.459Z,101779.33
2019-01-20T21:34:44.339Z,101780.56
2019-01-20T21:37:13.226Z,101778.48
2019-01-20T21:39:42.134Z,101778.19
2019-01-20T21:42:11.004Z,101785.34
2019-01-20T21:44:39.929Z,101781.84
2019-01-20T21:47:08.890Z,101775.30
2019-01-20T21:49:37.784Z,101780.38
2019-01-20T21:52:06.794Z,101783.94
2019-01-20T21:54:35.724Z,101789.25
2019-01-20T21:57:04.618Z,101791.15
2019-01-20T21:59:33.534Z,101788.95
2019-01-20T22:02:02.460Z,101794.80
2019-01-20T22:04:31.325Z,101797.42
2019-01-20T22:07:00.236Z,101803.27
2019-01-20T22:09:29.127Z,101812.80
2019-01-20T22:11:58.010Z,101810.73
2019-01-20T22:14:26.907Z,101813.47
2019-01-20T22:16:55.795Z,101817.88
2019-01-20T22:19:24.678Z,101817.59
2019-01-20T22:21:53.055Z,101810.23
2019-01-20T22:24:21.949Z,101813.47
2019-01-20T22:26:50.825Z,101810.48
2019-01-20T22:29:19.762Z,101819.25
2019-01-20T22:31:48.642Z,101809.91
2019-01-20T22:34:17.517Z,101802.86
2019-01-20T22:36:46.407Z,101812.14
2019-01-20T22:39:15.288Z,101805.91
2019-01-20T22:41:44.225Z,101812.56
2019-01-20T22:44:13.055Z,101816.04
2019-01-20T22:46:41.938Z,101813.84
2019-01-20T22:49:10.832Z,101819.17
2019-01-20T22:51:39.725Z,101818.50
2019-01-20T22:54:08.623Z,101822.27
2019-01-20T22:56:37.504Z,101827.08
2019-01-20T22:59:06.405Z,101832.48
2019-01-20T23:01:35.287Z,101831.20
2019-01-20T23:04:04.377Z,101834.48
2019-01-20T23:06:33.365Z,101838.44
2019-01-20T23:09:06.447Z,101834.44
2019-01-20T23:11:31.043Z,101835.43
2019-01-20T23:13:59.931Z,101833.33
2019-01-20T23:16:28.820Z,101835.50
2019-01-20T23:18:57.711Z,101835.20
2019-01-20T23:21:26.605Z,101843.36
2019-01-20T23:23:55.503Z,101843.47
2019-01-20T23:26:24.394Z,101850.64
2019-01-20T23:28:53.356Z,101845.62
2019-01-20T23:31:22.177Z,101856.63
2019-01-20T23:33:51.084Z,101844.47
2019-01-20T23:36:19.985Z,101842.25
2019-01-20T23:38:48.883Z,101841.82
2019-01-20T23:41:17.824Z,101835.89
2019-01-20T23:43:46.742Z,101843.70
2019-01-20T23:46:15.589Z,101837.07
2019-01-20T23:48:44.492Z,101841.06
2019-01-20T23:51:13.399Z,101837.14
2019-01-20T23:53:42.481Z,101841.05
2019-01-20T23:56:11.199Z,101842.69
2019-01-20T23:58:40.107Z,101851.08
